Time;durP1;ratioP1;P1;durP2;ratioP2;P2;SDS_P1;SDS_P2;PMS_P1;PMS_P2;Temp;Humidity;BMP_temperature;BMP_pressure;BME280_temperature;BME280_humidity;BME280_pressure;Samples;Min_cycle;Max_cycle;Signal;HPM_P1;HPM_P2
2022/12/11 00:00:50;;;;;;;1.10;1.00;;;15.80;47.40;;;;;;5093212;28;20512;-11
2022/12/11 00:03:17;;;;;;;0.90;0.90;;;15.80;47.30;;;;;;5093071;28;20054;-10
2022/12/11 00:05:44;;;;;;;0.68;0.68;;;15.80;47.40;;;;;;5092990;28;20052;-11
2022/12/11 00:08:10;;;;;;;0.80;0.80;;;15.80;47.30;;;;;;5093146;28;20058;-11
2022/12/11 00:10:35;;;;;;;1.00;1.00;;;15.80;47.90;;;;;;5093308;28;20080;-11
2022/12/11 00:13:02;;;;;;;0.93;0.93;;;15.80;47.40;;;;;;5093007;28;20378;-11
2022/12/11 00:15:29;;;;;;;0.95;0.95;;;15.80;47.40;;;;;;5092838;28;20501;-11
2022/12/11 00:17:55;;;;;;;0.95;0.95;;;15.70;47.30;;;;;;5093016;28;20133;-11
2022/12/11 00:20:20;;;;;;;1.25;1.15;;;15.70;47.30;;;;;;5092577;28;20063;-10
2022/12/11 00:22:46;;;;;;;0.90;0.90;;;15.80;47.40;;;;;;5092678;28;20112;-10
2022/12/11 00:25:12;;;;;;;0.82;0.82;;;15.80;47.40;;;;;;5092648;28;20485;-10
2022/12/11 00:27:38;;;;;;;1.00;1.00;;;15.80;47.40;;;;;;5092564;28;20052;-11
2022/12/11 00:30:04;;;;;;;0.90;0.90;;;15.80;47.40;;;;;;5092614;28;20059;-10
2022/12/11 00:32:30;;;;;;;0.88;0.88;;;15.80;47.40;;;;;;5092546;28;20047;-10
2022/12/11 00:34:56;;;;;;;1.10;1.00;;;15.70;47.30;;;;;;5092957;28;20060;-10
2022/12/11 00:37:22;;;;;;;0.90;0.90;;;15.70;47.30;;;;;;5092672;28;20040;-10
2022/12/11 00:39:48;;;;;;;1.13;1.02;;;15.80;47.30;;;;;;5092584;28;20143;-10
2022/12/11 00:42:13;;;;;;;1.13;1.02;;;15.80;47.40;;;;;;5092617;28;20055;-10
2022/12/11 00:44:39;;;;;;;0.90;0.90;;;15.80;47.40;;;;;;5092512;28;20556;-11
2022/12/11 00:47:06;;;;;;;0.93;0.90;;;15.80;47.30;;;;;;5092446;28;20052;-11
2022/12/11 00:49:31;;;;;;;0.82;0.82;;;15.80;47.40;;;;;;5095336;28;20543;-10
2022/12/11 00:51:57;;;;;;;0.82;0.82;;;15.80;47.40;;;;;;5096087;28;20113;-10
2022/12/11 00:54:23;;;;;;;0.90;0.90;;;15.80;47.40;;;;;;5096073;28;20501;-10
2022/12/11 00:56:49;;;;;;;0.80;0.80;;;15.80;47.40;;;;;;5096029;28;20067;-10
2022/12/11 00:59:15;;;;;;;0.90;0.90;;;15.80;47.40;;;;;;5095908;28;20048;-11
2022/12/11 01:01:41;;;;;;;0.85;0.85;;;15.70;47.30;;;;;;5095934;28;20051;-10
2022/12/11 01:04:07;;;;;;;0.88;0.88;;;15.80;47.40;;;;;;5096053;28;20058;-10
2022/12/11 01:06:32;;;;;;;0.85;0.85;;;15.80;47.40;;;;;;5096107;28;20048;-10
2022/12/11 01:11:42;;;;;;;1.20;1.10;;;15.80;47.40;;;;;;5095778;28;20048;-10
2022/12/11 01:14:11;;;;;;;0.80;0.80;;;15.80;47.40;;;;;;5095868;28;20059;-10
2022/12/11 01:16:38;;;;;;;0.95;0.95;;;15.70;47.30;;;;;;5095621;28;20055;-10
2022/12/11 01:19:04;;;;;;;1.00;1.00;;;15.80;47.40;;;;;;5095702;28;20078;-10
2022/12/11 01:21:29;;;;;;;0.98;0.98;;;15.70;47.30;;;;;;5095739;28;20087;-10
2022/12/11 01:23:55;;;;;;;1.30;1.20;;;15.80;47.40;;;;;;5095524;28;20079;-10
2022/12/11 01:26:22;;;;;;;1.00;1.00;;;15.80;47.40;;;;;;5095873;28;20047;-11
2022/12/11 01:28:50;;;;;;;0.90;0.90;;;15.80;47.40;;;;;;5095389;28;20095;-11
2022/12/11 01:31:17;;;;;;;1.17;1.08;;;15.70;47.40;;;;;;5095599;28;20060;-11
2022/12/11 01:33:43;;;;;;;0.93;0.93;;;15.70;47.40;;;;;;5095498;28;20051;-10
2022/12/11 01:36:15;;;;;;;0.90;0.90;;;15.70;47.40;;;;;;5095853;28;20051;-10
2022/12/11 01:38:40;;;;;;;0.70;0.70;;;15.70;47.40;;;;;;5095383;28;20055;-11
2022/12/11 01:41:07;;;;;;;0.98;0.88;;;15.80;47.40;;;;;;5095284;28;20051;-10
2022/12/11 01:43:32;;;;;;;0.93;0.93;;;15.70;47.30;;;;;;5077113;28;20063;-10
2022/12/11 01:45:58;;;;;;;1.15;1.05;;;15.80;47.40;;;;;;5093830;28;20063;-11
2022/12/11 01:48:28;;;;;;;1.20;1.10;;;15.70;47.40;;;;;;5095221;28;20056;-11
2022/12/11 01:50:58;;;;;;;1.10;1.00;;;15.70;47.40;;;;;;5095452;28;20052;-11
2022/12/11 01:53:35;;;;;;;0.85;0.85;;;15.70;47.40;;;;;;5077015;28;20056;-11
2022/12/11 01:56:01;;;;;;;0.90;0.90;;;15.80;47.40;;;;;;5095399;28;20059;-10
2022/12/11 01:58:50;;;;;;;0.80;0.80;;;15.80;47.40;;;;;;5095329;28;20061;-10
2022/12/11 02:01:24;;;;;;;0.88;0.82;;;15.80;47.40;;;;;;5095343;28;20055;-10
2022/12/11 02:03:49;;;;;;;0.75;0.75;;;15.70;47.30;;;;;;5095412;28;20151;-10
2022/12/11 02:06:35;;;;;;;0.98;0.98;;;15.70;47.40;;;;;;5094859;28;20468;-11
2022/12/11 02:09:02;;;;;;;1.05;0.98;;;15.70;47.30;;;;;;5076894;28;20512;-11
2022/12/11 02:11:48;;;;;;;1.00;1.00;;;15.70;47.40;;;;;;5094802;28;20566;-10
2022/12/11 02:14:26;;;;;;;1.00;1.00;;;15.70;47.40;;;;;;5094857;28;20063;-11
2022/12/11 02:16:59;;;;;;;0.80;0.80;;;15.70;47.30;;;;;;5094787;28;20040;-10
2022/12/11 02:19:25;;;;;;;1.00;1.00;;;15.70;47.40;;;;;;5094730;28;20050;-10
2022/12/11 02:21:54;;;;;;;1.00;0.95;;;15.70;47.40;;;;;;5094770;28;20056;-10
2022/12/11 02:24:27;;;;;;;0.90;0.90;;;15.70;47.40;;;;;;5095139;28;20139;-11
2022/12/11 02:27:24;;;;;;;1.10;1.00;;;15.70;47.40;;;;;;5094615;28;20043;-10
2022/12/11 02:29:58;;;;;;;0.95;0.88;;;15.70;47.40;;;;;;5094571;28;20413;-11
2022/12/11 02:32:30;;;;;;;0.70;0.70;;;15.70;47.40;;;;;;5094954;28;20052;-11
2022/12/11 02:35:17;;;;;;;0.90;0.90;;;15.70;47.40;;;;;;5094911;28;20056;-10
2022/12/11 02:37:45;;;;;;;0.60;0.60;;;15.70;47.40;;;;;;5094386;28;20052;-11
2022/12/11 02:40:15;;;;;;;0.90;0.90;;;15.70;47.40;;;;;;5093918;28;20078;-11
2022/12/11 02:42:43;;;;;;;1.05;1.00;;;15.70;48.00;;;;;;5094098;28;20052;-10
2022/12/11 02:45:10;;;;;;;1.15;1.05;;;15.70;47.40;;;;;;5094459;28;20143;-10
2022/12/11 02:47:37;;;;;;;0.95;0.95;;;15.70;47.40;;;;;;5093977;28;20052;-11
2022/12/11 02:50:08;;;;;;;0.90;0.90;;;15.70;47.40;;;;;;5094379;28;20062;-10
2022/12/11 02:52:36;;;;;;;0.80;0.80;;;15.70;47.40;;;;;;5094331;28;20048;-10
2022/12/11 02:55:05;;;;;;;0.70;0.70;;;15.70;47.40;;;;;;5094214;28;20078;-10
2022/12/11 02:57:38;;;;;;;0.73;0.73;;;15.70;47.40;;;;;;5094008;28;20086;-11
2022/12/11 03:00:05;;;;;;;0.90;0.90;;;15.70;47.40;;;;;;5094511;28;20059;-10
2022/12/11 03:02:31;;;;;;;0.80;0.80;;;15.70;47.40;;;;;;5094153;28;20501;-11
2022/12/11 03:04:58;;;;;;;0.80;0.80;;;15.70;47.40;;;;;;5093237;28;20044;-10
2022/12/11 03:07:28;;;;;;;0.75;0.75;;;15.70;47.40;;;;;;5093699;28;20052;-11
2022/12/11 03:09:54;;;;;;;0.77;0.77;;;15.70;47.40;;;;;;5094296;28;20443;-10
2022/12/11 03:12:26;;;;;;;0.90;0.90;;;15.70;47.40;;;;;;5093438;28;20173;-10
2022/12/11 03:14:52;;;;;;;0.80;0.80;;;15.70;47.40;;;;;;5094016;28;20063;-10
2022/12/11 03:17:25;;;;;;;0.80;0.80;;;15.70;47.40;;;;;;5093482;28;20044;-11
2022/12/11 03:20:00;;;;;;;1.05;1.00;;;15.70;47.40;;;;;;5093883;28;20150;-10
2022/12/11 03:22:37;;;;;;;0.80;0.80;;;15.70;47.40;;;;;;5093875;28;20101;-11
2022/12/11 03:25:09;;;;;;;0.98;0.98;;;15.70;47.40;;;;;;5074342;28;20052;-10
2022/12/11 03:27:40;;;;;;;;;;;15.70;47.40;;;;;;5093459;28;20044;-11
2022/12/11 03:30:11;;;;;;;1.20;1.02;;;15.70;47.40;;;;;;5093687;28;19916;-11
2022/12/11 03:32:49;;;;;;;1.08;1.00;;;15.70;47.40;;;;;;5093854;28;20097;-10
2022/12/11 03:35:21;;;;;;;1.00;1.00;;;15.70;47.40;;;;;;5093658;28;20043;-10
2022/12/11 03:37:50;;;;;;;0.75;0.75;;;15.70;47.40;;;;;;5093194;28;20109;-11
2022/12/11 03:40:19;;;;;;;1.10;1.00;;;15.70;47.40;;;;;;5093993;28;20052;-11
2022/12/11 03:42:47;;;;;;;0.80;0.80;;;15.70;47.40;;;;;;5093235;28;20059;-10
2022/12/11 03:45:15;;;;;;;0.80;0.80;;;15.70;47.40;;;;;;5093382;28;20048;-10
2022/12/11 03:47:42;;;;;;;0.90;0.90;;;15.70;47.50;;;;;;5093313;28;20056;-11
2022/12/11 03:50:11;;;;;;;0.80;0.80;;;15.70;47.50;;;;;;5075676;28;20055;-10
2022/12/11 03:52:40;;;;;;;1.13;1.02;;;15.70;47.50;;;;;;5093352;28;20052;-10
2022/12/11 03:55:07;;;;;;;0.90;0.90;;;15.70;47.50;;;;;;5092909;28;20178;-10
2022/12/11 03:57:36;;;;;;;0.88;0.88;;;15.70;47.50;;;;;;5092957;28;20048;-11
2022/12/11 04:00:14;;;;;;;0.88;0.88;;;15.70;47.50;;;;;;5092943;28;20048;-11
2022/12/11 04:02:41;;;;;;;0.90;0.90;;;15.70;47.50;;;;;;5092797;28;20454;-11
2022/12/11 04:05:08;;;;;;;0.60;0.60;;;15.70;48.00;;;;;;5093158;28;20055;-10
2022/12/11 04:07:34;;;;;;;0.82;0.82;;;15.70;47.40;;;;;;5093267;28;20055;-11
2022/12/11 04:09:59;;;;;;;0.80;0.80;;;15.70;47.50;;;;;;5093150;28;20048;-10
2022/12/11 04:12:25;;;;;;;1.13;1.02;;;15.70;47.50;;;;;;5093309;28;20101;-10
2022/12/11 04:15:02;;;;;;;0.85;0.85;;;15.70;47.50;;;;;;5092901;28;20051;-10
2022/12/11 04:25:50;;;;;;;0.88;0.88;;;15.70;47.50;;;;;;5093153;28;20043;-10
2022/12/11 04:28:16;;;;;;;0.85;0.85;;;15.70;47.40;;;;;;5092667;28;20054;-10
2022/12/11 04:30:48;;;;;;;0.77;0.77;;;15.70;47.50;;;;;;5092802;28;20472;-11
2022/12/11 04:33:14;;;;;;;0.80;0.80;;;15.70;47.50;;;;;;5093123;28;20079;-10
2022/12/11 04:35:40;;;;;;;0.80;0.80;;;15.70;47.50;;;;;;5093206;28;20140;-10
2022/12/11 04:38:06;;;;;;;0.90;0.90;;;15.70;47.50;;;;;;5092520;28;20071;-10
2022/12/11 04:40:33;;;;;;;1.05;0.95;;;15.70;47.50;;;;;;5092627;28;20117;-10
2022/12/11 04:43:00;;;;;;;0.80;0.80;;;15.70;47.50;;;;;;5093185;28;20044;-10
2022/12/11 04:45:26;;;;;;;0.82;0.82;;;15.70;47.50;;;;;;5074539;28;20105;-10
2022/12/11 04:47:51;;;;;;;0.80;0.80;;;15.70;47.50;;;;;;5092128;28;20056;-10
2022/12/11 04:50:17;;;;;;;1.20;1.10;;;15.60;47.40;;;;;;5092515;28;20052;-11
2022/12/11 04:52:43;;;;;;;0.70;0.70;;;15.70;47.50;;;;;;5092195;28;20079;-10
2022/12/11 04:55:09;;;;;;;0.75;0.75;;;15.70;47.50;;;;;;5092150;28;20139;-10
2022/12/11 04:57:35;;;;;;;0.80;0.80;;;15.70;47.50;;;;;;5072716;28;20140;-10
2022/12/11 05:00:03;;;;;;;1.08;1.00;;;15.70;47.50;;;;;;5092460;28;20135;-11
2022/12/11 05:02:29;;;;;;;0.90;0.90;;;15.60;47.40;;;;;;5092397;28;20489;-10
2022/12/11 05:04:55;;;;;;;0.85;0.85;;;15.70;47.50;;;;;;5092259;28;20109;-10
2022/12/11 05:07:20;;;;;;;0.80;0.80;;;15.70;47.50;;;;;;5092061;28;20044;-10
2022/12/11 05:09:46;;;;;;;0.80;0.80;;;15.70;48.00;;;;;;5092537;28;20056;-10
2022/12/11 05:12:11;;;;;;;0.90;0.90;;;15.70;47.50;;;;;;5092159;28;20098;-10
2022/12/11 05:14:37;;;;;;;0.90;0.90;;;15.70;47.50;;;;;;5092309;28;20080;-10
2022/12/11 05:17:03;;;;;;;1.10;1.00;;;15.70;47.50;;;;;;5092112;28;20044;-10
2022/12/11 05:19:29;;;;;;;0.90;0.90;;;15.60;47.40;;;;;;5092093;28;20109;-10
2022/12/11 05:21:54;;;;;;;1.10;1.00;;;15.70;47.40;;;;;;5092157;28;20075;-10
2022/12/11 05:24:20;;;;;;;0.70;0.70;;;15.70;47.50;;;;;;5092687;28;20104;-10
2022/12/11 05:26:46;;;;;;;0.90;0.90;;;15.70;47.50;;;;;;5092302;28;20482;-11
2022/12/11 05:29:11;;;;;;;0.73;0.73;;;15.70;47.50;;;;;;5092110;28;20056;-10
2022/12/11 05:31:37;;;;;;;1.20;1.10;;;15.70;47.50;;;;;;5091993;28;20079;-10
2022/12/11 05:34:02;;;;;;;1.08;1.00;;;15.70;47.50;;;;;;5092629;28;20052;-10
2022/12/11 05:36:31;;;;;;;0.98;0.90;;;15.60;47.40;;;;;;5095544;28;20093;-10
2022/12/11 05:38:59;;;;;;;0.90;0.90;;;15.60;47.40;;;;;;5095763;28;20052;-10
2022/12/11 05:41:27;;;;;;;0.80;0.80;;;15.70;47.50;;;;;;5095146;28;20056;-10
2022/12/11 05:43:52;;;;;;;0.80;0.80;;;15.60;47.40;;;;;;5095351;28;20465;-10
2022/12/11 05:46:21;;;;;;;0.70;0.70;;;15.60;47.40;;;;;;5095082;28;20135;-10
2022/12/11 05:48:49;;;;;;;0.82;0.82;;;15.70;47.50;;;;;;5095802;28;20048;-10
2022/12/11 05:51:16;;;;;;;0.88;0.88;;;15.70;47.50;;;;;;5095466;28;20052;-10
2022/12/11 05:53:43;;;;;;;0.80;0.80;;;15.70;47.50;;;;;;5095266;28;20059;-10
2022/12/11 05:56:14;;;;;;;0.98;0.90;;;15.60;47.40;;;;;;5095147;28;20049;-10
2022/12/11 05:58:41;;;;;;;0.98;0.98;;;15.60;47.40;;;;;;5095333;28;20056;-11
2022/12/11 06:01:15;;;;;;;0.90;0.90;;;15.70;47.50;;;;;;5094863;28;20095;-10
2022/12/11 06:03:41;;;;;;;0.90;0.90;;;15.60;47.40;;;;;;5095145;28;20055;-11
2022/12/11 06:06:07;;;;;;;0.75;0.75;;;15.60;47.40;;;;;;5094972;28;20048;-10
2022/12/11 06:08:33;;;;;;;0.95;0.85;;;15.60;47.40;;;;;;5095010;28;20493;-10
2022/12/11 06:10:59;;;;;;;0.88;0.88;;;15.60;47.40;;;;;;5094923;28;20059;-11
2022/12/11 06:13:25;;;;;;;0.73;0.73;;;15.60;47.60;;;;;;5094993;28;20048;-11
2022/12/11 06:15:51;;;;;;;0.90;0.90;;;15.60;47.40;;;;;;5095175;28;20059;-11
2022/12/11 06:18:17;;;;;;;0.90;0.90;;;15.60;47.40;;;;;;5094734;28;20508;-11
2022/12/11 06:20:43;;;;;;;0.90;0.90;;;15.60;47.40;;;;;;5094848;28;20154;-10
2022/12/11 06:23:08;;;;;;;0.90;0.90;;;15.70;47.50;;;;;;5094692;28;20516;-11
2022/12/11 06:25:36;;;;;;;0.70;0.70;;;15.60;47.40;;;;;;5095031;28;20060;-10
2022/12/11 06:28:03;;;;;;;0.80;0.80;;;15.60;47.40;;;;;;5094473;28;20062;-11
2022/12/11 06:30:30;;;;;;;0.80;0.80;;;15.60;47.40;;;;;;5094658;28;20052;-10
2022/12/11 06:33:00;;;;;;;0.93;0.93;;;15.60;47.40;;;;;;5094615;28;20052;-10
2022/12/11 06:35:25;;;;;;;0.80;0.80;;;15.60;47.40;;;;;;5094977;28;20406;-11
2022/12/11 06:37:51;;;;;;;0.75;0.75;;;15.60;47.40;;;;;;5094167;28;20052;-11
2022/12/11 06:40:17;;;;;;;0.80;0.80;;;15.60;47.40;;;;;;5094220;28;20062;-11
2022/12/11 06:42:42;;;;;;;0.80;0.80;;;15.60;47.40;;;;;;5094129;28;20060;-11
2022/12/11 06:45:08;;;;;;;0.90;0.90;;;15.60;47.40;;;;;;5094061;28;20052;-10
2022/12/11 06:47:34;;;;;;;1.00;1.00;;;15.60;47.40;;;;;;5093597;28;20047;-11
2022/12/11 06:50:01;;;;;;;0.88;0.88;;;15.60;47.40;;;;;;5094469;28;20131;-10
2022/12/11 06:52:27;;;;;;;0.90;0.90;;;15.60;47.40;;;;;;5094768;28;20048;-11
2022/12/11 06:54:53;;;;;;;0.80;0.80;;;15.60;47.50;;;;;;5094307;28;20052;-10
2022/12/11 06:57:19;;;;;;;0.80;0.80;;;15.60;47.50;;;;;;5094551;28;20500;-11
2022/12/11 06:59:45;;;;;;;0.90;0.90;;;15.60;47.50;;;;;;5094511;28;20052;-10
2022/12/11 07:02:18;;;;;;;0.90;0.90;;;15.60;47.50;;;;;;5094303;28;20391;-10
2022/12/11 07:04:43;;;;;;;0.80;0.80;;;15.60;48.00;;;;;;5094329;28;20515;-10
2022/12/11 07:07:10;;;;;;;0.93;0.93;;;15.60;47.50;;;;;;5093804;28;20085;-10
2022/12/11 07:09:37;;;;;;;0.90;0.90;;;15.60;47.50;;;;;;5093835;28;20074;-10
2022/12/11 07:12:03;;;;;;;0.82;0.82;;;15.60;47.50;;;;;;5093994;28;20056;-10
2022/12/11 07:14:30;;;;;;;0.90;0.90;;;15.60;47.50;;;;;;5093948;28;20052;-10
2022/12/11 07:16:56;;;;;;;1.15;1.00;;;15.60;47.50;;;;;;5093952;28;20134;-10
2022/12/11 07:19:22;;;;;;;0.80;0.80;;;15.60;47.50;;;;;;5093733;28;20058;-10
2022/12/11 07:21:48;;;;;;;0.80;0.80;;;15.60;47.50;;;;;;5094144;28;20075;-10
2022/12/11 07:24:14;;;;;;;0.80;0.80;;;15.60;47.40;;;;;;5094047;28;20146;-10
2022/12/11 07:26:40;;;;;;;0.70;0.70;;;15.60;47.50;;;;;;5093578;28;20131;-11
2022/12/11 07:29:06;;;;;;;1.10;1.00;;;15.60;47.50;;;;;;5093744;28;20052;-10
2022/12/11 07:31:31;;;;;;;0.88;0.88;;;15.60;47.40;;;;;;5093725;28;20147;-10
2022/12/11 07:34:00;;;;;;;0.80;0.80;;;15.60;47.50;;;;;;5094017;28;20122;-10
2022/12/11 07:36:26;;;;;;;1.02;1.00;;;15.60;47.50;;;;;;5092760;28;20052;-10
2022/12/11 07:38:52;;;;;;;0.65;0.63;;;15.60;47.40;;;;;;5093541;28;20091;-10
2022/12/11 07:41:18;;;;;;;0.85;0.85;;;15.60;47.40;;;;;;5093572;28;20054;-11
2022/12/11 07:43:51;;;;;;;0.90;0.90;;;15.60;47.40;;;;;;5059180;28;20079;-11
2022/12/11 07:46:20;;;;;;;0.85;0.85;;;15.60;47.40;;;;;;5093317;28;20567;-11
2022/12/11 07:48:47;;;;;;;1.20;1.10;;;15.60;47.40;;;;;;5093420;28;20063;-11
2022/12/11 07:51:18;;;;;;;1.00;1.00;;;15.60;47.40;;;;;;5093354;28;20044;-10
2022/12/11 07:53:45;;;;;;;0.90;0.90;;;15.60;47.40;;;;;;5093399;28;20044;-10
2022/12/11 07:56:11;;;;;;;0.80;0.80;;;15.60;47.30;;;;;;5088926;28;20051;-11
2022/12/11 07:58:37;;;;;;;0.82;0.82;;;15.70;47.40;;;;;;5092929;28;20139;-11
2022/12/11 08:01:13;;;;;;;1.00;0.90;;;15.60;47.30;;;;;;5093256;28;20063;-10
2022/12/11 08:03:39;;;;;;;0.80;0.80;;;15.60;47.30;;;;;;5093490;28;20055;-10
2022/12/11 08:06:05;;;;;;;0.80;0.80;;;15.60;47.30;;;;;;5092750;28;20052;-11
2022/12/11 08:08:31;;;;;;;1.10;1.00;;;15.70;47.30;;;;;;5093134;28;20052;-10
2022/12/11 08:11:01;;;;;;;0.93;0.93;;;15.70;47.30;;;;;;5092988;28;20090;-11
2022/12/11 08:13:27;;;;;;;0.82;0.82;;;15.70;47.30;;;;;;5092988;28;20497;-11
2022/12/11 08:15:52;;;;;;;0.80;0.80;;;15.70;47.30;;;;;;5092615;28;20047;-11
2022/12/11 08:18:18;;;;;;;0.80;0.80;;;15.60;47.30;;;;;;5092974;28;20048;-11
2022/12/11 08:20:44;;;;;;;1.02;0.93;;;15.60;47.30;;;;;;5092878;28;20048;-10
2022/12/11 08:23:10;;;;;;;0.90;0.90;;;15.70;47.90;;;;;;5092869;28;20486;-10
2022/12/11 08:25:37;;;;;;;0.80;0.80;;;15.60;47.30;;;;;;5092911;28;20052;-10
2022/12/11 08:28:04;;;;;;;0.90;0.90;;;15.70;47.30;;;;;;5092663;28;20059;-10
2022/12/11 08:30:32;;;;;;;0.80;0.80;;;15.70;47.30;;;;;;5092690;28;20602;-11
2022/12/11 08:32:58;;;;;;;0.70;0.70;;;15.70;47.30;;;;;;5092779;28;20134;-11
2022/12/11 08:35:25;;;;;;;0.90;0.90;;;15.70;47.30;;;;;;5092653;28;20052;-10
2022/12/11 08:37:51;;;;;;;0.80;0.80;;;15.70;47.30;;;;;;5092400;28;20067;-10
2022/12/11 08:40:16;;;;;;;0.80;0.80;;;15.70;47.30;;;;;;5092900;28;20394;-10
2022/12/11 08:42:42;;;;;;;0.80;0.80;;;15.70;47.30;;;;;;5092610;28;20405;-11
2022/12/11 08:45:08;;;;;;;0.88;0.88;;;15.70;47.30;;;;;;5092679;28;20055;-11
2022/12/11 08:47:34;;;;;;;0.82;0.82;;;15.70;47.30;;;;;;5091970;28;20132;-11
2022/12/11 08:49:59;;;;;;;0.80;0.80;;;15.70;47.30;;;;;;5092431;28;20493;-10
2022/12/11 08:52:25;;;;;;;0.93;0.90;;;15.70;47.30;;;;;;5092212;28;20088;-11
2022/12/11 08:54:51;;;;;;;0.73;0.73;;;15.70;47.30;;;;;;5092785;28;20537;-10
2022/12/11 08:57:16;;;;;;;0.90;0.90;;;15.70;47.30;;;;;;5092368;28;20409;-11
2022/12/11 08:59:42;;;;;;;0.93;0.90;;;15.70;47.30;;;;;;5092346;28;20142;-11
2022/12/11 09:02:11;;;;;;;1.10;1.00;;;15.70;47.20;;;;;;5091019;28;20059;-11
2022/12/11 09:04:37;;;;;;;1.00;1.00;;;15.70;47.30;;;;;;5092398;28;20083;-10
2022/12/11 09:07:02;;;;;;;1.23;1.13;;;15.70;47.20;;;;;;5092194;28;20040;-11
2022/12/11 09:09:28;;;;;;;0.73;0.73;;;15.70;47.20;;;;;;5093620;28;20048;-10
2022/12/11 09:11:54;;;;;;;0.80;0.80;;;15.70;47.20;;;;;;5096135;28;20050;-10
2022/12/11 09:14:20;;;;;;;1.10;1.00;;;15.70;47.20;;;;;;5096110;28;20123;-10
2022/12/11 09:16:46;;;;;;;0.80;0.80;;;15.70;47.20;;;;;;5095690;28;20404;-10
2022/12/11 09:19:13;;;;;;;0.90;0.90;;;15.70;47.20;;;;;;5095585;28;20135;-10
2022/12/11 09:21:41;;;;;;;0.88;0.88;;;15.70;47.20;;;;;;5096020;28;20055;-10
2022/12/11 09:24:08;;;;;;;0.75;0.75;;;15.70;47.20;;;;;;5095656;28;20048;-10
2022/12/11 09:26:34;;;;;;;0.73;0.73;;;15.70;47.20;;;;;;5095638;28;20052;-11
2022/12/11 09:29:02;;;;;;;0.77;0.77;;;15.70;47.20;;;;;;5095585;28;20405;-10
2022/12/11 09:31:31;;;;;;;0.80;0.80;;;15.70;47.20;;;;;;5095608;28;20051;-10
2022/12/11 09:33:59;;;;;;;1.02;0.98;;;15.70;47.20;;;;;;5095590;28;20397;-10
2022/12/11 09:36:26;;;;;;;0.70;0.70;;;15.70;47.10;;;;;;5095533;28;20059;-10
2022/12/11 09:38:52;;;;;;;0.75;0.75;;;15.70;47.10;;;;;;5095400;28;20052;-11
2022/12/11 09:41:21;;;;;;;0.90;0.90;;;15.70;47.10;;;;;;5094135;28;20193;-10
2022/12/11 09:44:14;;;;;;;0.80;0.80;;;15.70;47.10;;;;;;5095325;28;20473;-11
2022/12/11 09:46:41;;;;;;;1.00;0.90;;;15.70;47.10;;;;;;5095126;28;20464;-10
2022/12/11 09:49:27;;;;;;;0.93;0.93;;;15.70;47.10;;;;;;5095127;28;20131;-11
2022/12/11 09:52:17;;;;;;;0.95;0.90;;;15.70;47.10;;;;;;5095208;28;20051;-11
2022/12/11 09:54:57;;;;;;;0.80;0.80;;;15.70;47.10;;;;;;5095298;28;20060;-11
2022/12/11 09:57:47;;;;;;;0.80;0.80;;;15.80;47.10;;;;;;5095048;28;20562;-11
2022/12/11 10:00:27;;;;;;;0.85;0.85;;;15.80;47.20;;;;;;5095412;28;20136;-10
2022/12/11 10:02:55;;;;;;;0.82;0.82;;;15.70;47.10;;;;;;5094960;28;20048;-11
2022/12/11 10:05:40;;;;;;;0.75;0.75;;;15.80;47.10;;;;;;5095044;28;20490;-10
2022/12/11 10:08:37;;;;;;;0.70;0.70;;;15.80;47.10;;;;;;5094929;28;20050;-11
2022/12/11 10:11:15;;;;;;;0.80;0.80;;;15.70;47.10;;;;;;5094904;28;20039;-11
2022/12/11 10:14:19;;;;;;;0.95;0.95;;;15.70;47.10;;;;;;5095256;28;20039;-10
2022/12/11 10:16:53;;;;;;;0.70;0.70;;;15.80;47.10;;;;;;5072606;28;20048;-10
2022/12/11 10:19:26;;;;;;;0.98;0.93;;;15.70;47.00;;;;;;5094940;28;20101;-11
2022/12/11 10:21:53;;;;;;;0.70;0.70;;;15.70;47.00;;;;;;5094748;28;20052;-10
2022/12/11 10:24:30;;;;;;;0.73;0.73;;;15.80;47.10;;;;;;5094705;28;20137;-11
2022/12/11 10:27:01;;;;;;;1.17;1.00;;;15.70;47.00;;;;;;5094950;28;20558;-11
2022/12/11 10:29:27;;;;;;;0.88;0.88;;;15.80;47.10;;;;;;5094743;28;20058;-10
2022/12/11 10:31:56;;;;;;;1.05;0.98;;;15.80;47.10;;;;;;5094520;28;20080;-10
2022/12/11 10:34:30;;;;;;;0.80;0.80;;;15.80;47.10;;;;;;5094592;28;20097;-10
2022/12/11 10:36:56;;;;;;;0.68;0.68;;;15.70;47.00;;;;;;5094510;28;20059;-11
2022/12/11 10:39:22;;;;;;;0.77;0.77;;;15.70;47.00;;;;;;5094458;28;20051;-10
2022/12/11 10:41:50;;;;;;;0.88;0.85;;;15.70;47.00;;;;;;5094417;28;20052;-11
2022/12/11 10:44:22;;;;;;;1.00;0.90;;;15.80;47.00;;;;;;5094768;28;20406;-10
2022/12/11 10:47:01;;;;;;;0.80;0.80;;;15.80;47.00;;;;;;5094399;28;20036;-11
2022/12/11 10:49:31;;;;;;;1.23;1.13;;;15.80;47.60;;;;;;5094768;28;20097;-10
2022/12/11 10:52:01;;;;;;;0.80;0.80;;;15.80;47.00;;;;;;5094375;28;20131;-10
2022/12/11 10:54:44;;;;;;;0.70;0.70;;;15.80;47.00;;;;;;5094228;28;20059;-11
2022/12/11 10:57:13;;;;;;;0.90;0.90;;;15.80;47.00;;;;;;5094414;28;20052;-11
2022/12/11 10:59:41;;;;;;;0.85;0.85;;;15.80;47.00;;;;;;5094244;28;20064;-11
2022/12/11 11:02:25;;;;;;;0.82;0.82;;;15.80;47.00;;;;;;5094110;28;20052;-11
2022/12/11 11:04:53;;;;;;;1.02;0.88;;;15.80;47.00;;;;;;5094385;28;20071;-10
2022/12/11 11:07:24;;;;;;;1.00;1.00;;;15.80;47.00;;;;;;5094124;28;20056;-11
2022/12/11 11:10:03;;;;;;;0.90;0.90;;;15.80;47.00;;;;;;5094050;28;20097;-11
2022/12/11 11:12:29;;;;;;;0.80;0.80;;;15.80;47.00;;;;;;5093884;28;20517;-11
2022/12/11 11:15:04;;;;;;;0.90;0.90;;;15.80;47.00;;;;;;5094316;28;20048;-10
2022/12/11 11:17:31;;;;;;;1.00;1.00;;;15.80;47.00;;;;;;5093985;28;20051;-11
2022/12/11 11:20:03;;;;;;;0.80;0.80;;;15.80;47.00;;;;;;5094095;28;20443;-10
2022/12/11 11:22:31;;;;;;;0.93;0.93;;;15.80;47.00;;;;;;5093881;28;20139;-11
2022/12/11 11:24:58;;;;;;;0.80;0.80;;;15.70;47.00;;;;;;5094337;28;20060;-10
2022/12/11 11:27:27;;;;;;;1.13;0.90;;;15.80;47.50;;;;;;5093743;28;20048;-11
2022/12/11 11:29:59;;;;;;;0.80;0.80;;;15.80;47.50;;;;;;5093633;28;20078;-10
2022/12/11 11:32:38;;;;;;;0.90;0.90;;;15.80;47.00;;;;;;5093083;28;20048;-10
2022/12/11 11:35:12;;;;;;;1.20;1.10;;;15.80;47.00;;;;;;5093809;28;20043;-10
2022/12/11 11:37:44;;;;;;;0.75;0.75;;;15.80;47.00;;;;;;5093282;28;20051;-11
2022/12/11 11:40:22;;;;;;;0.93;0.93;;;15.80;47.00;;;;;;5093553;28;20504;-11
2022/12/11 11:43:15;;;;;;;0.80;0.80;;;15.80;47.00;;;;;;5093247;28;20052;-10
2022/12/11 11:46:02;;;;;;;0.95;0.95;;;15.80;47.00;;;;;;5093422;28;20058;-11
2022/12/11 11:48:46;;;;;;;0.90;0.90;;;15.70;47.00;;;;;;5093349;28;20077;-11
2022/12/11 11:51:25;;;;;;;0.90;0.90;;;15.70;47.00;;;;;;5093365;28;20051;-11
2022/12/11 11:53:54;;;;;;;1.23;0.98;;;15.80;47.00;;;;;;5093451;28;20063;-10
2022/12/11 11:56:21;;;;;;;0.80;0.80;;;15.70;47.00;;;;;;5093313;28;20424;-11
2022/12/11 11:59:15;;;;;;;0.98;0.98;;;15.80;47.00;;;;;;5093252;28;20471;-10
2022/12/11 12:01:42;;;;;;;0.70;0.70;;;15.80;47.00;;;;;;5093565;28;20055;-10
2022/12/11 12:04:08;;;;;;;1.00;1.00;;;15.70;47.00;;;;;;5093210;28;20497;-11
2022/12/11 12:07:21;;;;;;;0.70;0.70;;;15.70;47.00;;;;;;5093066;28;20052;-10
2022/12/11 12:10:12;;;;;;;0.90;0.90;;;15.80;47.10;;;;;;4991341;28;20050;-11
2022/12/11 12:13:14;;;;;;;0.80;0.80;;;15.70;47.00;;;;;;5093543;28;20048;-10
2022/12/11 12:15:56;;;;;;;0.80;0.80;;;15.80;47.10;;;;;;5092975;28;20052;-10
2022/12/11 12:18:42;;;;;;;1.30;1.20;;;15.70;47.00;;;;;;5093122;28;20467;-11
2022/12/11 12:21:33;;;;;;;0.70;0.70;;;15.70;47.00;;;;;;5092944;28;20478;-10
2022/12/11 12:24:37;;;;;;;0.80;0.80;;;15.80;47.10;;;;;;5092899;28;20040;-10
2022/12/11 12:27:18;;;;;;;0.70;0.70;;;15.70;47.00;;;;;;5087636;28;20072;-10
2022/12/11 12:30:10;;;;;;;0.90;0.90;;;15.70;47.00;;;;;;5092978;28;20048;-11
2022/12/11 12:33:00;;;;;;;0.82;0.82;;;15.80;47.10;;;;;;5092484;28;20052;-10
2022/12/11 12:35:36;;;;;;;1.10;1.10;;;15.70;47.00;;;;;;5092725;28;20130;-11
2022/12/11 12:38:09;;;;;;;1.05;1.00;;;15.70;47.00;;;;;;5092663;28;20508;-11
2022/12/11 12:40:44;;;;;;;0.77;0.77;;;15.70;47.00;;;;;;5092618;28;20048;-11
2022/12/11 12:43:30;;;;;;;0.80;0.80;;;15.70;47.00;;;;;;5091983;28;20052;-11
2022/12/11 12:46:19;;;;;;;0.70;0.70;;;15.70;47.00;;;;;;5074371;28;20048;-10
2022/12/11 12:48:45;;;;;;;0.80;0.80;;;15.70;47.00;;;;;;5092619;28;20050;-10
2022/12/11 12:51:16;;;;;;;1.00;1.00;;;15.70;47.10;;;;;;5092829;28;20135;-10
2022/12/11 12:53:58;;;;;;;0.80;0.80;;;15.80;47.10;;;;;;5093087;28;20050;-11
2022/12/11 12:56:26;;;;;;;0.82;0.82;;;15.70;47.00;;;;;;5092264;28;20482;-11
2022/12/11 12:58:51;;;;;;;0.80;0.80;;;15.70;47.00;;;;;;5092488;28;20063;-10
2022/12/11 13:01:24;;;;;;;0.70;0.70;;;15.70;47.00;;;;;;5092535;28;20052;-11
2022/12/11 13:04:04;;;;;;;0.75;0.75;;;15.70;47.10;;;;;;5092467;28;20060;-11
2022/12/11 13:06:39;;;;;;;0.73;0.73;;;15.70;47.00;;;;;;5092235;28;20044;-11
2022/12/11 13:09:25;;;;;;;0.88;0.88;;;15.80;47.00;;;;;;5092295;28;20039;-10
2022/12/11 13:11:56;;;;;;;0.95;0.90;;;15.70;47.00;;;;;;5092823;28;20151;-11
2022/12/11 13:14:30;;;;;;;0.70;0.70;;;15.70;47.00;;;;;;5092164;28;20131;-11